Gleeson, Arizona
Current Conditions -  °F | °C
As of 6:56 PM on Tuesday 21 Oct 2014 (Local Time) from KDUG Reporting Station
Clear Clear  
Wind Chill: 63°   Ceiling: Unl
Heat Index: 63°   Visibility: 10mi
Dew Point: 43°   Wind: 5mph
Humidity: 48%   Direction: 70°ENE
Pressure: 29.98"   Gusts: NA
Location:  31.7341°N, 109.494°W
Report Text: KDUG 220156Z AUTO 07004KT 10SM CLR 17/06 A2998 RMK AO2 SLP111 T01720061
Loading
Personal Weather Stations






























Interactive Weather Map New forecast layout! Learn more

10-Day Weather Forecast

Advertisements
Track Severe Weather on mobile